createdAt,value
2023-03-11T00:01:49.350Z,97281.81
2023-03-11T00:03:54.234Z,97283.44
2023-03-11T00:06:03.610Z,97293.47
2023-03-11T00:08:12.024Z,97291.78
2023-03-11T00:10:19.074Z,97286.84
2023-03-11T00:12:26.519Z,97287.66
2023-03-11T00:14:31.588Z,97286.91
2023-03-11T00:16:36.506Z,97296.75
2023-03-11T00:18:41.371Z,97299.19
2023-03-11T00:20:49.305Z,97317.44
2023-03-11T00:22:54.299Z,97310.03
2023-03-11T00:24:59.160Z,97317.59
2023-03-11T00:27:04.097Z,97336.53
2023-03-11T00:29:12.125Z,97327.38
2023-03-11T00:31:19.621Z,97334.13
2023-03-11T00:33:24.511Z,97330.06
2023-03-11T00:35:33.453Z,97331.75
2023-03-11T00:37:38.334Z,97340.97
2023-03-11T00:39:43.300Z,97340.97
2023-03-11T00:41:50.767Z,97336.75
2023-03-11T00:43:55.677Z,97346.72
2023-03-11T00:46:04.956Z,97359.09
2023-03-11T00:48:11.088Z,97351.69
2023-03-11T00:50:20.569Z,97355.81
2023-03-11T00:52:25.723Z,97356.69
2023-03-11T00:54:31.088Z,97359.06
2023-03-11T00:56:36.260Z,97363.22
2023-03-11T00:58:42.175Z,97366.53
2023-03-11T01:00:47.362Z,97361.63
2023-03-11T01:02:56.608Z,97364.84
2023-03-11T01:05:01.450Z,97391.25
2023-03-11T01:07:06.609Z,97374.84
2023-03-11T01:09:11.455Z,97371.53
2023-03-11T01:11:16.346Z,97384.81
2023-03-11T01:13:24.216Z,97385.66
2023-03-11T01:15:33.238Z,97379.88
2023-03-11T01:17:38.663Z,97388.91
2023-03-11T01:19:46.091Z,97393.88
2023-03-11T01:21:51.470Z,97389.78
2023-03-11T01:23:56.354Z,97399.66
2023-03-11T01:26:04.275Z,97398.00
2023-03-11T01:28:10.491Z,97408.81
2023-03-11T01:30:19.465Z,97413.00
2023-03-11T01:32:24.636Z,97417.97
2023-03-11T01:34:29.589Z,97420.38
2023-03-11T01:36:39.308Z,97427.81
2023-03-11T01:38:44.345Z,97436.06
2023-03-11T01:40:52.285Z,97436.22
2023-03-11T01:42:58.069Z,97432.13
2023-03-11T01:45:03.246Z,97437.13
2023-03-11T01:47:41.597Z,97435.50
2023-03-11T01:49:48.118Z,97444.50
2023-03-11T01:52:00.264Z,97446.94
2023-03-11T01:54:11.454Z,97456.00
2023-03-11T01:56:17.590Z,97451.03
2023-03-11T01:58:28.249Z,97463.44
2023-03-11T02:00:33.239Z,97456.06
2023-03-11T02:02:43.309Z,97457.66
2023-03-11T02:04:49.236Z,97460.91
2023-03-11T02:06:58.177Z,97462.56
2023-03-11T02:09:04.346Z,97467.47
2023-03-11T02:11:14.281Z,97467.50
2023-03-11T02:13:20.723Z,97471.53
2023-03-11T02:15:28.513Z,97460.94
2023-03-11T02:17:37.168Z,97467.53
2023-03-11T02:20:02.093Z,97470.94
2023-03-11T02:22:11.468Z,97467.63
2023-03-11T02:24:24.223Z,97466.16
2023-03-11T02:26:36.022Z,97471.16
2023-03-11T02:28:45.533Z,97468.63
2023-03-11T02:30:52.497Z,97471.91
2023-03-11T02:32:59.149Z,97478.47
2023-03-11T02:35:04.206Z,97478.53
2023-03-11T02:37:11.809Z,97479.38
2023-03-11T02:39:20.088Z,97484.31
2023-03-11T02:41:25.067Z,97481.03
2023-03-11T02:43:37.412Z,97481.78
2023-03-11T02:45:48.455Z,97490.91
2023-03-11T02:47:55.648Z,97493.41
2023-03-11T02:50:00.985Z,97504.06
2023-03-11T02:52:06.779Z,97502.47
2023-03-11T02:54:12.334Z,97494.22
2023-03-11T02:56:17.387Z,97499.97
2023-03-11T02:58:22.788Z,97506.53
2023-03-11T03:00:28.494Z,97504.84
2023-03-11T03:02:41.714Z,97518.81
2023-03-11T03:04:47.688Z,97505.59
2023-03-11T03:06:53.376Z,97508.91
2023-03-11T03:08:59.164Z,97512.38
2023-03-11T03:11:04.095Z,97520.53
2023-03-11T03:13:09.005Z,97508.97
2023-03-11T03:15:16.356Z,97513.16
2023-03-11T03:17:22.399Z,97517.31
2023-03-11T03:19:30.316Z,97519.81
2023-03-11T03:21:35.209Z,97523.22
2023-03-11T03:23:40.672Z,97526.53
2023-03-11T03:25:46.346Z,97538.97
2023-03-11T03:27:52.241Z,97538.91
2023-03-11T03:29:58.254Z,97547.22
2023-03-11T03:32:03.277Z,97550.53
2023-03-11T03:34:08.513Z,97549.00
2023-03-11T03:36:18.382Z,97553.13
2023-03-11T03:38:28.540Z,97559.00
2023-03-11T03:40:34.056Z,97573.06
2023-03-11T03:42:42.353Z,97577.25
2023-03-11T03:44:48.017Z,97580.59
2023-03-11T03:46:52.992Z,97588.94
2023-03-11T03:48:58.179Z,97598.94
2023-03-11T03:51:08.635Z,97597.25
2023-03-11T03:53:19.249Z,97602.22
2023-03-11T03:55:24.432Z,97602.22
2023-03-11T03:57:31.278Z,97603.91
2023-03-11T03:59:36.605Z,97607.25
2023-03-11T04:01:41.476Z,97615.44
2023-03-11T04:03:46.856Z,97615.41
2023-03-11T04:05:52.607Z,97622.84
2023-03-11T04:07:58.278Z,97625.31
2023-03-11T04:10:07.244Z,97626.94
2023-03-11T04:12:17.516Z,97627.72
2023-03-11T04:14:23.835Z,97631.88
2023-03-11T04:16:33.729Z,97631.84
2023-03-11T04:18:43.265Z,97637.63
2023-03-11T04:20:48.478Z,97634.31
2023-03-11T04:22:53.611Z,97634.34
2023-03-11T04:25:01.894Z,97635.91
2023-03-11T04:27:12.262Z,97640.03
2023-03-11T04:29:18.842Z,97639.25
2023-03-11T04:31:27.902Z,97635.13
2023-03-11T04:33:33.361Z,97636.81
2023-03-11T04:35:41.269Z,97635.09
2023-03-11T04:37:46.212Z,97638.41
2023-03-11T04:39:54.217Z,97638.41
2023-03-11T04:42:01.173Z,97640.03
2023-03-11T04:44:10.485Z,97646.63
2023-03-11T04:46:16.048Z,97641.72
2023-03-11T04:48:21.360Z,97655.81
2023-03-11T04:50:27.643Z,97655.84
2023-03-11T04:52:32.753Z,97656.66
2023-03-11T04:54:37.758Z,97660.75
2023-03-11T04:56:43.894Z,97663.22
2023-03-11T04:58:49.012Z,97664.00
2023-03-11T05:00:57.747Z,97663.19
2023-03-11T05:03:03.114Z,97659.81
2023-03-11T05:05:10.756Z,97673.13
2023-03-11T05:07:16.683Z,97670.63
2023-03-11T05:09:22.091Z,97667.34
2023-03-11T05:11:27.880Z,97673.94
2023-03-11T05:13:33.082Z,97676.34
2023-03-11T05:15:38.796Z,97669.81
2023-03-11T05:17:47.414Z,97681.34
2023-03-11T05:19:53.701Z,97679.75
2023-03-11T05:22:04.113Z,97687.22
2023-03-11T05:24:09.872Z,97693.84
2023-03-11T05:26:14.754Z,97692.22
2023-03-11T05:28:21.787Z,97701.28
2023-03-11T05:30:30.290Z,97697.88
2023-03-11T05:32:36.566Z,97699.53
2023-03-11T05:34:46.698Z,97697.09
2023-03-11T05:36:53.816Z,97696.28
2023-03-11T05:39:00.396Z,97694.66
2023-03-11T05:41:07.206Z,97691.31
2023-03-11T05:43:12.688Z,97696.31
2023-03-11T05:45:21.171Z,97693.88
2023-03-11T05:47:28.326Z,97699.63
2023-03-11T05:49:35.162Z,97702.91
2023-03-11T05:51:42.942Z,97706.25
2023-03-11T05:53:49.967Z,97706.25
2023-03-11T05:56:07.669Z,97706.25
2023-03-11T05:58:12.817Z,97708.75
2023-03-11T06:00:20.580Z,97711.22
2023-03-11T06:02:29.790Z,97713.72
2023-03-11T06:04:34.802Z,97721.13
2023-03-11T06:06:45.487Z,97729.41
2023-03-11T06:08:51.268Z,97731.09
2023-03-11T06:11:04.979Z,97733.56
2023-03-11T06:13:10.483Z,97733.59
2023-03-11T06:15:24.606Z,97734.41
2023-03-11T06:17:31.543Z,97740.97
2023-03-11T06:19:36.878Z,97742.63
2023-03-11T06:21:44.809Z,97743.50
2023-03-11T06:23:50.286Z,97749.25
2023-03-11T06:25:59.511Z,97750.84
2023-03-11T06:28:06.412Z,97752.53
2023-03-11T06:30:14.457Z,97751.69
2023-03-11T06:32:27.355Z,97754.13
2023-03-11T06:34:32.242Z,97755.78
2023-03-11T06:36:37.300Z,97759.06
2023-03-11T06:38:46.502Z,97768.13
2023-03-11T06:40:52.477Z,97756.50
2023-03-11T06:42:57.946Z,97754.09
2023-03-11T06:45:04.598Z,97764.00
2023-03-11T06:47:10.062Z,97767.25
2023-03-11T06:49:15.185Z,97775.50
2023-03-11T06:51:21.656Z,97790.31
2023-03-11T06:53:27.231Z,97791.97
2023-03-11T06:55:34.769Z,97798.56
2023-03-11T06:57:40.687Z,97800.22
2023-03-11T06:59:47.928Z,97803.50
2023-03-11T07:01:55.679Z,97807.66
2023-03-11T07:04:00.590Z,97810.13
2023-03-11T07:06:06.756Z,97808.53
2023-03-11T07:08:11.816Z,97817.59
2023-03-11T07:10:17.412Z,97812.66
2023-03-11T07:12:25.782Z,97825.00
2023-03-11T07:14:30.811Z,97831.59
2023-03-11T07:16:36.006Z,97827.47
2023-03-11T07:18:48.008Z,97838.09
2023-03-11T07:20:53.118Z,97835.53
2023-03-11T07:22:58.558Z,97841.28
2023-03-11T07:25:03.425Z,97842.91
2023-03-11T07:27:08.892Z,97842.78
2023-03-11T07:29:16.351Z,97854.38
2023-03-11T07:31:23.968Z,97851.88
2023-03-11T07:33:29.093Z,97850.97
2023-03-11T07:35:34.357Z,97854.25
2023-03-11T07:37:39.476Z,97855.84
2023-03-11T07:39:44.335Z,97855.94
2023-03-11T07:41:49.885Z,97862.56
2023-03-11T07:43:58.840Z,97872.44
2023-03-11T07:46:16.562Z,97870.88
2023-03-11T07:48:21.777Z,97870.78
2023-03-11T07:50:26.676Z,97875.91
2023-03-11T07:52:34.229Z,97871.72
2023-03-11T07:54:39.136Z,97881.59
2023-03-11T07:56:44.280Z,97882.47
2023-03-11T07:58:49.944Z,97892.50
2023-03-11T08:00:57.062Z,97894.13
2023-03-11T08:03:05.767Z,97892.50
2023-03-11T08:05:13.220Z,97903.16
2023-03-11T08:07:18.908Z,97914.75
2023-03-11T08:09:24.588Z,97918.91
2023-03-11T08:11:32.679Z,97923.88
2023-03-11T08:13:38.838Z,97922.22
2023-03-11T08:15:44.686Z,97928.88
2023-03-11T08:17:50.227Z,97930.50
2023-03-11T08:19:59.696Z,97939.63
2023-03-11T08:22:06.232Z,97938.84
2023-03-11T08:24:15.027Z,97943.81
2023-03-11T08:26:24.421Z,97943.81
2023-03-11T08:28:30.292Z,97955.41
2023-03-11T08:30:36.870Z,97957.91
2023-03-11T08:32:43.014Z,97968.63
2023-03-11T08:34:48.390Z,97962.84
2023-03-11T08:36:57.835Z,97961.16
2023-03-11T08:39:03.904Z,97964.47
2023-03-11T08:41:10.018Z,97970.22
2023-03-11T08:43:17.218Z,97975.13
2023-03-11T08:45:23.532Z,97976.69
2023-03-11T08:47:29.237Z,97981.53
2023-03-11T08:49:35.410Z,97982.25
2023-03-11T08:51:42.753Z,97984.72
2023-03-11T08:53:51.820Z,97983.84
2023-03-11T08:55:57.713Z,97991.28
2023-03-11T08:58:03.723Z,97992.13
2023-03-11T09:00:13.380Z,98006.09
2023-03-11T09:02:18.994Z,98009.38
2023-03-11T09:04:25.223Z,98006.03
2023-03-11T09:06:31.023Z,98004.41
2023-03-11T09:08:37.737Z,98011.84
2023-03-11T09:10:46.741Z,98011.97
2023-03-11T09:12:53.666Z,98019.34
2023-03-11T09:14:59.715Z,98012.72
2023-03-11T09:17:05.044Z,98014.41
2023-03-11T09:19:10.404Z,98010.34
2023-03-11T09:21:16.659Z,98022.84
2023-03-11T09:23:22.900Z,98022.84
2023-03-11T09:25:28.468Z,98024.47
2023-03-11T09:27:38.253Z,98026.19
2023-03-11T09:29:45.610Z,98016.16
2023-03-11T09:31:52.874Z,98019.47
2023-03-11T09:33:59.974Z,98022.69
2023-03-11T09:36:05.834Z,98019.97
2023-03-11T09:38:11.367Z,98017.28
2023-03-11T09:40:21.904Z,98009.53
2023-03-11T09:42:40.493Z,98015.13
2023-03-11T09:44:54.030Z,98016.59
2023-03-11T09:47:39.722Z,98014.63
2023-03-11T09:50:15.229Z,98016.22
2023-03-11T09:52:27.573Z,98019.63
2023-03-11T09:54:37.928Z,98030.75
2023-03-11T09:56:45.358Z,98030.00
2023-03-11T09:58:55.372Z,98030.41
2023-03-11T10:01:00.585Z,98033.63
2023-03-11T10:03:09.397Z,98036.13
2023-03-11T10:05:23.030Z,98038.91
2023-03-11T10:07:34.978Z,98047.16
2023-03-11T10:09:50.762Z,98044.72
2023-03-11T10:12:13.485Z,98051.38
2023-03-11T10:14:45.938Z,98050.34
2023-03-11T10:17:00.868Z,98048.69
2023-03-11T10:19:18.000Z,98046.16
2023-03-11T10:21:39.420Z,98051.69
2023-03-11T10:24:10.188Z,98050.06
2023-03-11T10:26:21.436Z,98051.59
2023-03-11T10:28:34.095Z,98050.03
2023-03-11T10:30:48.873Z,98052.47
2023-03-11T10:32:59.710Z,98057.53
2023-03-11T10:35:14.784Z,98051.03
2023-03-11T10:37:30.928Z,98041.97
2023-03-11T10:39:44.860Z,98053.47
2023-03-11T10:41:56.971Z,98055.09
2023-03-11T10:44:09.115Z,98044.47
2023-03-11T10:46:22.716Z,98033.97
2023-03-11T10:48:28.746Z,98031.44
2023-03-11T10:50:37.468Z,98021.63
2023-03-11T10:52:48.961Z,98027.59
2023-03-11T10:55:05.869Z,98029.16
2023-03-11T10:57:26.510Z,98016.09
2023-03-11T10:59:37.563Z,98013.97
2023-03-11T11:01:59.269Z,98021.81
2023-03-11T11:04:05.214Z,98022.06
2023-03-11T11:06:23.569Z,98025.03
2023-03-11T11:08:28.531Z,98025.34
2023-03-11T11:10:34.801Z,98021.16
2023-03-11T11:12:40.109Z,98032.09
2023-03-11T11:14:51.259Z,98037.22
2023-03-11T11:16:58.795Z,98034.50
2023-03-11T11:19:07.370Z,98033.88
2023-03-11T11:21:17.416Z,98036.53
2023-03-11T11:23:30.605Z,98033.41
2023-03-11T11:25:38.343Z,98038.53
2023-03-11T11:27:58.516Z,98033.91
2023-03-11T11:30:18.913Z,98030.16
2023-03-11T11:32:29.266Z,98037.06
2023-03-11T11:34:37.009Z,98033.97
2023-03-11T11:36:42.572Z,98036.72
2023-03-11T11:38:47.798Z,98038.25
2023-03-11T11:40:54.173Z,98040.16
2023-03-11T11:43:03.560Z,98028.56
2023-03-11T11:45:19.236Z,98028.59
2023-03-11T11:47:31.018Z,98033.00
2023-03-11T11:49:37.709Z,98034.69
2023-03-11T11:51:48.545Z,98033.91
2023-03-11T11:54:02.348Z,98033.56
2023-03-11T11:56:07.555Z,98037.94
2023-03-11T11:58:14.909Z,98042.19
2023-03-11T12:00:25.432Z,98035.38
2023-03-11T12:02:50.010Z,98030.22
2023-03-11T12:04:59.675Z,98035.97
2023-03-11T12:07:19.621Z,98039.50
2023-03-11T12:09:32.927Z,98041.66
2023-03-11T12:11:45.022Z,98035.13
2023-03-11T12:14:03.392Z,98032.41
2023-03-11T12:16:19.457Z,98037.81
2023-03-11T12:18:35.330Z,98046.34
2023-03-11T12:20:46.098Z,98037.69
2023-03-11T12:23:21.452Z,98033.22
2023-03-11T12:25:37.566Z,98035.91
2023-03-11T12:27:47.660Z,98035.59
2023-03-11T12:29:57.640Z,98035.31
2023-03-11T12:32:04.419Z,98035.47
2023-03-11T12:34:17.983Z,98027.97
2023-03-11T12:36:32.059Z,98029.88
2023-03-11T12:38:40.082Z,98035.91
2023-03-11T12:41:09.615Z,98035.59
2023-03-11T12:43:47.305Z,98035.56
2023-03-11T12:45:55.856Z,98040.81
2023-03-11T12:48:37.713Z,98047.00
2023-03-11T12:50:47.203Z,98036.81
2023-03-11T12:52:57.531Z,98034.78
2023-03-11T12:55:39.603Z,98036.56
2023-03-11T12:57:57.062Z,98053.72
2023-03-11T13:00:45.469Z,98048.50
2023-03-11T13:03:46.112Z,98038.34
2023-03-11T13:06:08.366Z,98035.56
2023-03-11T13:08:20.409Z,98042.50
2023-03-11T13:10:43.231Z,98042.59
2023-03-11T13:12:50.315Z,98044.34
2023-03-11T13:15:42.917Z,98049.63
2023-03-11T13:18:02.193Z,98049.28
2023-03-11T13:20:56.271Z,98056.28
2023-03-11T13:23:40.774Z,98042.63
2023-03-11T13:26:00.500Z,98054.44
2023-03-11T13:28:48.270Z,98054.09
2023-03-11T13:31:00.409Z,98065.28
2023-03-11T13:33:36.740Z,98056.84
2023-03-11T13:36:02.732Z,98072.41
2023-03-11T13:38:40.114Z,98069.81
2023-03-11T13:40:49.753Z,98062.69
2023-03-11T13:43:02.351Z,98071.09
2023-03-11T13:45:18.070Z,98074.81
2023-03-11T13:47:24.413Z,98058.00
2023-03-11T13:49:38.567Z,98064.59
2023-03-11T13:51:47.761Z,98076.47
2023-03-11T13:53:59.033Z,98073.56
2023-03-11T13:56:07.905Z,98081.78
2023-03-11T13:58:23.554Z,98077.53
2023-03-11T14:00:31.568Z,98087.66
2023-03-11T14:02:38.632Z,98092.03
2023-03-11T14:04:49.739Z,98093.38
2023-03-11T14:06:55.397Z,98095.25
2023-03-11T14:09:00.956Z,98102.97
2023-03-11T14:11:20.405Z,98098.88
2023-03-11T14:13:28.552Z,98112.91
2023-03-11T14:15:47.021Z,98120.09
2023-03-11T14:17:53.986Z,98122.66
2023-03-11T14:20:22.222Z,98127.00
2023-03-11T14:22:27.460Z,98126.78
2023-03-11T14:24:34.212Z,98120.09
2023-03-11T14:26:47.968Z,98124.78
2023-03-11T14:28:55.848Z,98118.34
2023-03-11T14:31:03.247Z,98116.56
2023-03-11T14:33:24.327Z,98109.44
2023-03-11T14:35:29.912Z,98107.28
2023-03-11T14:37:37.010Z,98109.47
2023-03-11T14:39:49.229Z,98103.66
2023-03-11T14:42:05.645Z,98109.94
2023-03-11T14:44:14.174Z,98112.69
2023-03-11T14:46:24.356Z,98105.06
2023-03-11T14:48:32.845Z,98108.41
2023-03-11T14:50:38.955Z,98104.31
2023-03-11T14:52:49.432Z,98104.19
2023-03-11T14:54:56.514Z,98100.84
2023-03-11T14:57:09.762Z,98099.31
2023-03-11T14:59:23.172Z,98102.63
2023-03-11T15:01:31.537Z,98117.47
2023-03-11T15:03:41.270Z,98107.47
2023-03-11T15:05:51.187Z,98105.25
2023-03-11T15:08:03.049Z,98094.09
2023-03-11T15:10:12.624Z,98102.53
2023-03-11T15:12:37.547Z,98100.19
2023-03-11T15:14:53.687Z,98100.38
2023-03-11T15:17:23.233Z,98105.53
2023-03-11T15:19:38.330Z,98092.06
2023-03-11T15:21:49.387Z,98094.31
2023-03-11T15:23:59.082Z,98101.94
2023-03-11T15:26:04.639Z,98094.91
2023-03-11T15:28:30.509Z,98095.03
2023-03-11T15:30:35.851Z,98098.41
2023-03-11T15:32:45.136Z,98106.00
2023-03-11T15:35:04.444Z,98112.59
2023-03-11T15:37:23.475Z,98106.38
2023-03-11T15:39:46.847Z,98098.75
2023-03-11T15:42:03.671Z,98093.03
2023-03-11T15:44:27.006Z,98101.38
2023-03-11T15:46:31.994Z,98104.38
2023-03-11T15:48:36.922Z,98098.31
2023-03-11T15:50:53.848Z,98102.72
2023-03-11T15:53:01.052Z,98105.91
2023-03-11T15:55:06.427Z,98101.53
2023-03-11T15:57:19.923Z,98091.97
2023-03-11T15:59:28.222Z,98088.31
2023-03-11T16:01:33.508Z,98103.00
2023-03-11T16:03:39.050Z,98106.63
2023-03-11T16:05:44.693Z,98107.34
2023-03-11T16:07:50.256Z,98115.84
2023-03-11T16:09:55.568Z,98125.97
2023-03-11T16:12:00.498Z,98131.06
2023-03-11T16:14:06.841Z,98142.94
2023-03-11T16:16:20.746Z,98131.47
2023-03-11T16:18:25.754Z,98135.81
2023-03-11T16:20:36.490Z,98129.94
2023-03-11T16:22:41.623Z,98139.63
2023-03-11T16:24:47.313Z,98140.78
2023-03-11T16:26:53.437Z,98137.44
2023-03-11T16:29:09.023Z,98152.72
2023-03-11T16:31:25.750Z,98153.91
2023-03-11T16:33:30.711Z,98156.47
2023-03-11T16:35:36.349Z,98152.47
2023-03-11T16:37:43.437Z,98160.13
2023-03-11T16:39:49.122Z,98161.91
2023-03-11T16:41:54.051Z,98164.56
2023-03-11T16:43:58.957Z,98168.75
2023-03-11T16:46:03.977Z,98177.19
2023-03-11T16:48:11.615Z,98178.03
2023-03-11T16:50:16.791Z,98180.50
2023-03-11T16:52:23.095Z,98189.72
2023-03-11T16:54:28.141Z,98190.63
2023-03-11T16:56:33.236Z,98194.75
2023-03-11T16:58:38.181Z,98198.09
2023-03-11T17:00:43.971Z,98197.47
2023-03-11T17:02:48.933Z,98190.88
2023-03-11T17:04:56.499Z,98194.25
2023-03-11T17:07:01.509Z,98200.91
2023-03-11T17:09:06.805Z,98196.88
2023-03-11T17:11:18.835Z,98202.75
2023-03-11T17:13:23.828Z,98207.78
2023-03-11T17:15:28.748Z,98203.72
2023-03-11T17:17:33.770Z,98204.63
2023-03-11T17:19:38.907Z,98203.88
2023-03-11T17:21:46.588Z,98201.44
2023-03-11T17:23:52.446Z,98199.84
2023-03-11T17:25:57.388Z,98216.47
2023-03-11T17:28:02.318Z,98214.03
2023-03-11T17:30:10.490Z,98214.03
2023-03-11T17:32:17.619Z,98209.94
2023-03-11T17:34:22.846Z,98214.91
2023-03-11T17:36:28.447Z,98224.03
2023-03-11T17:38:36.419Z,98223.25
2023-03-11T17:40:41.376Z,98236.47
2023-03-11T17:42:46.315Z,98230.69
2023-03-11T17:44:52.312Z,98233.16
2023-03-11T17:46:57.319Z,98241.41
2023-03-11T17:49:02.756Z,98243.03
2023-03-11T17:51:10.488Z,98249.63
2023-03-11T17:53:15.441Z,98250.44
2023-03-11T17:55:22.996Z,98252.91
2023-03-11T17:57:28.043Z,98252.88
2023-03-11T17:59:32.965Z,98258.59
2023-03-11T18:01:38.130Z,98256.09
2023-03-11T18:03:43.338Z,98261.00
2023-03-11T18:05:58.065Z,98267.56
2023-03-11T18:08:03.255Z,98262.56
2023-03-11T18:10:10.116Z,98264.22
2023-03-11T18:12:17.734Z,98255.97
2023-03-11T18:14:23.422Z,98269.16
2023-03-11T18:16:31.995Z,98272.44
2023-03-11T18:18:39.078Z,98264.16
2023-03-11T18:20:44.108Z,98269.91
2023-03-11T18:22:49.404Z,98269.03
2023-03-11T18:24:54.461Z,98270.69
2023-03-11T18:26:59.386Z,98273.09
2023-03-11T18:29:06.958Z,98267.25
2023-03-11T18:31:14.003Z,98268.06
2023-03-11T18:33:19.423Z,98272.09
2023-03-11T18:35:24.465Z,98267.13
2023-03-11T18:37:29.769Z,98272.03
2023-03-11T18:39:34.837Z,98276.94
2023-03-11T18:41:39.744Z,98275.28
2023-03-11T18:43:44.663Z,98271.97
2023-03-11T18:45:52.424Z,98280.22
2023-03-11T18:47:57.401Z,98276.03
2023-03-11T18:50:02.576Z,98281.75
2023-03-11T18:52:09.136Z,98286.63
2023-03-11T18:54:14.674Z,98288.25
2023-03-11T18:56:20.946Z,98284.84
2023-03-11T18:58:25.885Z,98289.81
2023-03-11T19:00:30.816Z,98288.91
2023-03-11T19:02:38.386Z,98295.44
2023-03-11T19:04:44.002Z,98294.56
2023-03-11T19:06:50.191Z,98293.69
2023-03-11T19:08:55.489Z,98288.03
2023-03-11T19:11:00.523Z,98294.63
2023-03-11T19:13:05.438Z,98289.53
2023-03-11T19:15:12.791Z,98300.25
2023-03-11T19:17:18.407Z,98302.69
2023-03-11T19:19:25.988Z,98306.00
2023-03-11T19:21:31.196Z,98304.25
2023-03-11T19:23:37.045Z,98305.91
2023-03-11T19:25:50.592Z,98309.94
2023-03-11T19:28:02.046Z,98320.66
2023-03-11T19:30:10.223Z,98312.44
2023-03-11T19:32:15.194Z,98318.28
2023-03-11T19:34:21.482Z,98310.88
2023-03-11T19:36:30.194Z,98316.72
2023-03-11T19:38:36.435Z,98319.19
2023-03-11T19:40:41.842Z,98317.59
2023-03-11T19:42:46.999Z,98308.66
2023-03-11T19:44:52.398Z,98312.81
2023-03-11T19:46:57.372Z,98314.44
2023-03-11T19:49:02.650Z,98316.09
2023-03-11T19:51:09.304Z,98311.19
2023-03-11T19:53:16.843Z,98315.28
2023-03-11T19:55:22.190Z,98317.66
2023-03-11T19:57:27.439Z,98321.72
2023-03-11T19:59:32.768Z,98323.22
2023-03-11T20:01:38.181Z,98319.88
2023-03-11T20:03:43.815Z,98325.59
2023-03-11T20:05:50.891Z,98327.91
2023-03-11T20:07:55.841Z,98326.09
2023-03-11T20:10:04.144Z,98328.44
2023-03-11T20:12:10.473Z,98330.09
2023-03-11T20:14:15.952Z,98329.09
2023-03-11T20:16:22.674Z,98337.31
2023-03-11T20:18:27.685Z,98338.88
2023-03-11T20:20:33.498Z,98326.59
2023-03-11T20:22:38.430Z,98331.53
2023-03-11T20:24:43.415Z,98337.09
2023-03-11T20:26:51.435Z,98338.63
2023-03-11T20:28:58.460Z,98345.13
2023-03-11T20:31:11.279Z,98343.41
2023-03-11T20:33:16.254Z,98335.19
2023-03-11T20:35:21.426Z,98335.91
2023-03-11T20:37:26.491Z,98331.72
2023-03-11T20:39:31.459Z,98334.13
2023-03-11T20:41:40.036Z,98327.44
2023-03-11T20:43:48.262Z,98330.66
2023-03-11T20:45:53.526Z,98338.75
2023-03-11T20:47:58.776Z,98334.59
2023-03-11T20:50:03.914Z,98328.81
2023-03-11T20:52:08.864Z,98333.66
2023-03-11T20:54:14.082Z,98336.72
2023-03-11T20:56:24.167Z,98331.66
2023-03-11T20:58:29.408Z,98335.69
2023-03-11T21:00:37.068Z,98343.16
2023-03-11T21:02:44.188Z,98349.81
2023-03-11T21:04:49.334Z,98342.41
2023-03-11T21:06:55.482Z,98348.38
2023-03-11T21:09:04.882Z,98353.22
2023-03-11T21:11:09.947Z,98346.38
2023-03-11T21:13:15.230Z,98354.56
2023-03-11T21:15:20.642Z,98356.00
2023-03-11T21:17:28.912Z,98370.72
2023-03-11T21:19:33.928Z,98366.56
2023-03-11T21:21:39.433Z,98369.19
2023-03-11T21:23:45.491Z,98371.03
2023-03-11T21:25:50.566Z,98364.44
2023-03-11T21:27:55.788Z,98362.75
2023-03-11T21:30:02.060Z,98364.19
2023-03-11T21:32:08.086Z,98368.09
2023-03-11T21:34:15.769Z,98368.75
2023-03-11T21:36:21.108Z,98370.38
2023-03-11T21:38:27.629Z,98368.66
2023-03-11T21:40:32.674Z,98368.84
2023-03-11T21:42:37.600Z,98367.03
2023-03-11T21:44:43.725Z,98367.91
2023-03-11T21:46:49.107Z,98360.53
2023-03-11T21:48:54.708Z,98362.03
2023-03-11T21:51:02.366Z,98369.41
2023-03-11T21:53:07.461Z,98360.16
2023-03-11T21:55:13.212Z,98361.75
2023-03-11T21:57:18.112Z,98359.97
2023-03-11T21:59:25.501Z,98369.81
2023-03-11T22:01:30.816Z,98372.34
2023-03-11T22:03:36.682Z,98363.44
2023-03-11T22:05:42.560Z,98370.91
2023-03-11T22:07:50.503Z,98383.97
2023-03-11T22:09:55.830Z,98391.53
2023-03-11T22:12:00.833Z,98388.38
2023-03-11T22:14:05.857Z,98381.88
2023-03-11T22:16:11.535Z,98375.91
2023-03-11T22:18:16.796Z,98375.00
2023-03-11T22:20:22.266Z,98375.69
2023-03-11T22:22:27.491Z,98377.28
2023-03-11T22:24:35.009Z,98377.94
2023-03-11T22:26:40.381Z,98379.72
2023-03-11T22:28:45.576Z,98374.00
2023-03-11T22:30:50.478Z,98367.44
2023-03-11T22:32:55.537Z,98376.72
2023-03-11T22:35:00.575Z,98372.59
2023-03-11T22:37:05.514Z,98368.41
2023-03-11T22:39:10.499Z,98379.88
2023-03-11T22:41:20.262Z,98379.72
2023-03-11T22:43:25.597Z,98387.84
2023-03-11T22:45:30.617Z,98394.31
2023-03-11T22:47:36.137Z,98386.06
2023-03-11T22:49:41.417Z,98381.03
2023-03-11T22:51:46.354Z,98384.22
2023-03-11T22:53:51.318Z,98379.34
2023-03-11T22:55:56.297Z,98382.75
2023-03-11T22:58:03.881Z,98388.47
2023-03-11T23:00:17.265Z,98391.03
2023-03-11T23:02:22.289Z,98391.84
2023-03-11T23:04:27.456Z,98384.44
2023-03-11T23:06:32.534Z,98395.09
2023-03-11T23:08:38.144Z,98396.69
2023-03-11T23:10:44.224Z,98395.91
2023-03-11T23:12:49.564Z,98395.91
2023-03-11T23:14:57.037Z,98392.50
2023-03-11T23:17:02.022Z,98390.03
2023-03-11T23:19:06.973Z,98397.44
2023-03-11T23:21:19.625Z,98401.41
2023-03-11T23:23:25.089Z,98405.19
2023-03-11T23:25:30.150Z,98400.94
2023-03-11T23:27:35.769Z,98400.16
2023-03-11T23:29:44.072Z,98396.16
2023-03-11T23:31:51.604Z,98396.97
2023-03-11T23:33:56.917Z,98390.44
2023-03-11T23:36:03.771Z,98393.13
2023-03-11T23:38:08.712Z,98396.63
2023-03-11T23:40:15.319Z,98387.31
2023-03-11T23:42:25.862Z,98390.53
2023-03-11T23:44:31.660Z,98394.50
2023-03-11T23:46:36.628Z,98392.25
2023-03-11T23:48:44.672Z,98389.06
2023-03-11T23:50:49.854Z,98394.72
2023-03-11T23:52:54.779Z,98385.59
2023-03-11T23:54:59.720Z,98387.19
2023-03-11T23:57:04.689Z,98387.13
2023-03-11T23:59:10.197Z,98389.47
